createdAt,value
2022-11-18T00:01:33.977Z,1.58
2022-11-18T00:04:02.000Z,1.40
2022-11-18T00:06:31.003Z,1.42
2022-11-18T00:09:00.425Z,1.30
2022-11-18T00:11:50.200Z,1.20
2022-11-18T00:19:50.848Z,1.42
2022-11-18T00:30:50.766Z,1.65
2022-11-18T00:36:40.530Z,2.17
2022-11-18T00:39:21.715Z,2.30
2022-11-18T00:42:21.348Z,2.30
2022-11-18T00:48:24.292Z,2.33
2022-11-18T00:51:22.447Z,2.45
2022-11-18T00:54:00.261Z,2.80
2022-11-18T00:59:26.313Z,3.65
2022-11-18T01:01:56.013Z,3.15
2022-11-18T01:04:30.586Z,3.22
2022-11-18T01:13:21.609Z,3.47
2022-11-18T01:18:53.988Z,3.95
2022-11-18T01:21:24.410Z,3.88
2022-11-18T01:27:05.363Z,3.42
2022-11-18T01:33:02.288Z,3.45
2022-11-18T01:38:49.710Z,3.35
2022-11-18T01:41:27.008Z,2.58
2022-11-18T01:44:13.399Z,2.40
2022-11-18T01:46:43.832Z,2.42
2022-11-18T01:49:34.175Z,2.20
2022-11-18T01:52:10.263Z,2.00
2022-11-18T02:01:06.886Z,1.83
2022-11-18T02:03:47.860Z,1.63
2022-11-18T02:06:22.109Z,1.77
2022-11-18T02:08:52.535Z,1.83
2022-11-18T02:12:07.791Z,1.40
2022-11-18T02:15:02.827Z,1.98
2022-11-18T02:18:15.722Z,1.40
2022-11-18T02:24:00.259Z,1.00
2022-11-18T02:27:22.914Z,1.20
2022-11-18T02:30:13.815Z,1.03
2022-11-18T02:32:58.845Z,1.20
2022-11-18T02:35:47.037Z,1.20
2022-11-18T02:38:34.771Z,1.00
2022-11-18T02:41:10.722Z,1.10
2022-11-18T02:44:02.620Z,0.90
2022-11-18T02:46:35.045Z,0.90
2022-11-18T02:49:20.633Z,0.77
2022-11-18T02:51:51.453Z,0.60
2022-11-18T02:54:23.166Z,0.63
2022-11-18T02:56:52.693Z,0.50
2022-11-18T02:59:20.996Z,0.60
2022-11-18T03:01:48.947Z,0.50
2022-11-18T03:04:18.247Z,0.40
2022-11-18T03:07:06.277Z,0.40
2022-11-18T03:09:41.640Z,0.30
2022-11-18T03:12:18.652Z,0.38
2022-11-18T03:15:11.690Z,0.60
2022-11-18T03:18:24.966Z,0.43
2022-11-18T03:21:11.734Z,1.00
2022-11-18T03:23:59.530Z,1.10
2022-11-18T03:26:36.162Z,1.20
2022-11-18T03:29:21.441Z,1.23
2022-11-18T03:32:00.991Z,1.10
2022-11-18T03:34:49.347Z,0.60
2022-11-18T03:37:28.818Z,0.63
2022-11-18T03:40:11.934Z,0.30
2022-11-18T03:42:45.156Z,0.50
2022-11-18T03:45:25.229Z,0.40
2022-11-18T03:48:19.640Z,0.40
2022-11-18T03:50:55.592Z,0.38
2022-11-18T03:53:29.409Z,0.30
2022-11-18T03:56:14.213Z,0.60
2022-11-18T03:59:13.242Z,0.43
2022-11-18T04:01:53.105Z,0.35
2022-11-18T04:04:22.261Z,0.60
2022-11-18T04:07:02.165Z,0.57
2022-11-18T04:09:51.428Z,0.50
2022-11-18T04:12:21.439Z,0.40
2022-11-18T04:14:52.381Z,0.40
2022-11-18T04:17:26.438Z,0.40
2022-11-18T04:19:54.934Z,0.50
2022-11-18T04:22:22.890Z,0.40
2022-11-18T04:24:50.857Z,0.43
2022-11-18T04:27:18.895Z,0.40
2022-11-18T04:30:08.029Z,0.40
2022-11-18T04:32:36.474Z,0.60
2022-11-18T04:35:07.368Z,0.35
2022-11-18T04:37:35.320Z,0.50
2022-11-18T04:40:04.628Z,0.30
2022-11-18T04:42:32.426Z,0.60
2022-11-18T04:45:00.427Z,0.52
2022-11-18T04:47:28.798Z,0.32
2022-11-18T04:49:56.830Z,0.65
2022-11-18T04:52:25.041Z,0.50
2022-11-18T04:54:53.284Z,0.60
2022-11-18T04:57:21.595Z,0.50
2022-11-18T04:59:49.544Z,0.50
2022-11-18T05:02:17.370Z,0.60
2022-11-18T05:04:46.545Z,0.43
2022-11-18T05:07:15.673Z,0.77
2022-11-18T05:09:44.630Z,0.75
2022-11-18T05:12:33.220Z,0.50
2022-11-18T05:15:01.706Z,0.38
2022-11-18T05:17:29.745Z,0.40
2022-11-18T05:19:57.846Z,0.40
2022-11-18T05:22:25.972Z,0.43
2022-11-18T05:24:54.485Z,0.40
2022-11-18T05:27:22.381Z,0.40
2022-11-18T05:29:50.735Z,0.40
2022-11-18T05:32:19.288Z,0.40
2022-11-18T05:34:47.760Z,0.50
2022-11-18T05:37:16.299Z,0.40
2022-11-18T05:39:44.458Z,0.60
2022-11-18T05:42:31.051Z,0.35
2022-11-18T05:44:59.236Z,0.25
2022-11-18T05:47:28.069Z,0.30
2022-11-18T05:49:55.904Z,0.30
2022-11-18T05:52:25.520Z,0.20
2022-11-18T05:54:54.054Z,0.25
2022-11-18T05:57:22.060Z,0.30
2022-11-18T05:59:49.835Z,0.40
2022-11-18T06:02:24.192Z,0.50
2022-11-18T06:05:02.027Z,0.40
2022-11-18T06:07:41.458Z,0.40
2022-11-18T06:10:16.978Z,0.40
2022-11-18T06:12:49.608Z,0.30
2022-11-18T06:15:26.666Z,0.40
2022-11-18T06:18:24.144Z,0.43
2022-11-18T06:20:59.429Z,0.40
2022-11-18T06:23:39.610Z,0.43
2022-11-18T06:26:09.409Z,0.40
2022-11-18T06:28:40.352Z,0.50
2022-11-18T06:31:09.017Z,0.30
2022-11-18T06:33:37.644Z,0.50
2022-11-18T06:36:05.795Z,0.30
2022-11-18T06:38:33.969Z,0.30
2022-11-18T06:41:03.137Z,0.30
2022-11-18T06:43:41.853Z,0.30
2022-11-18T06:46:32.584Z,0.20
2022-11-18T06:49:02.167Z,0.30
2022-11-18T06:51:30.689Z,0.20
2022-11-18T06:53:58.597Z,0.30
2022-11-18T06:56:27.053Z,0.30
2022-11-18T06:58:57.932Z,0.60
2022-11-18T07:01:32.025Z,0.70
2022-11-18T07:04:01.211Z,0.50
2022-11-18T07:06:32.907Z,0.60
2022-11-18T07:09:04.292Z,0.30
2022-11-18T07:14:01.344Z,0.32
2022-11-18T07:16:29.955Z,0.50
2022-11-18T07:18:58.062Z,0.60
2022-11-18T07:21:29.322Z,0.60
2022-11-18T07:23:57.996Z,0.40
2022-11-18T07:26:25.896Z,0.50
2022-11-18T07:28:54.689Z,0.30
2022-11-18T07:31:23.328Z,0.75
2022-11-18T07:33:54.811Z,0.57
2022-11-18T07:39:04.367Z,0.55
2022-11-18T07:41:33.429Z,0.35
2022-11-18T07:44:04.742Z,0.70
2022-11-18T07:46:38.738Z,0.60
2022-11-18T07:49:09.305Z,0.60
2022-11-18T07:51:40.077Z,0.70
2022-11-18T07:54:13.939Z,0.60
2022-11-18T07:56:42.098Z,0.90
2022-11-18T07:59:10.120Z,0.70
2022-11-18T08:01:38.708Z,0.70
2022-11-18T08:04:12.541Z,0.73
2022-11-18T08:06:41.421Z,0.50
2022-11-18T08:09:09.793Z,0.30
2022-11-18T08:11:38.096Z,0.35
2022-11-18T08:14:06.446Z,0.60
2022-11-18T08:16:35.461Z,0.40
2022-11-18T08:19:03.837Z,0.50
2022-11-18T08:21:32.455Z,0.70
2022-11-18T08:24:00.563Z,0.77
2022-11-18T08:26:29.570Z,0.50
2022-11-18T08:28:58.198Z,0.57
2022-11-18T08:31:30.662Z,0.60
2022-11-18T08:34:06.657Z,0.55
2022-11-18T08:36:38.320Z,0.57
2022-11-18T08:39:09.709Z,0.70
2022-11-18T08:41:43.721Z,1.00
2022-11-18T08:44:19.943Z,0.70
2022-11-18T08:46:51.102Z,0.60
2022-11-18T08:49:20.143Z,0.50
2022-11-18T08:51:48.271Z,0.77
2022-11-18T08:54:16.201Z,0.60
2022-11-18T08:56:44.471Z,0.63
2022-11-18T08:59:13.838Z,0.75
2022-11-18T09:01:43.856Z,1.30
2022-11-18T09:04:13.720Z,1.30
2022-11-18T09:06:42.005Z,0.80
2022-11-18T09:09:10.763Z,0.80
2022-11-18T09:11:40.849Z,0.80
2022-11-18T09:15:11.625Z,0.60
2022-11-18T09:17:02.429Z,0.65
2022-11-18T09:19:48.109Z,0.60
2022-11-18T09:22:17.023Z,0.60
2022-11-18T09:24:45.035Z,0.80
2022-11-18T09:27:16.996Z,0.70
2022-11-18T09:29:46.922Z,0.88
2022-11-18T09:32:15.317Z,1.00
2022-11-18T09:34:44.796Z,1.00
2022-11-18T09:37:15.484Z,1.10
2022-11-18T09:39:44.027Z,0.65
2022-11-18T09:42:35.266Z,0.80
2022-11-18T09:45:23.562Z,1.00
2022-11-18T09:47:56.024Z,0.95
2022-11-18T09:53:28.920Z,1.20
2022-11-18T09:55:57.626Z,1.00
2022-11-18T09:58:35.800Z,1.60
2022-11-18T10:01:11.039Z,1.30
2022-11-18T10:03:44.210Z,1.33
2022-11-18T10:06:31.862Z,1.13
2022-11-18T10:09:41.388Z,1.00
2022-11-18T10:12:23.051Z,1.15
2022-11-18T10:15:16.566Z,1.20
2022-11-18T10:21:34.694Z,1.10
2022-11-18T10:24:24.622Z,1.50
2022-11-18T10:27:00.957Z,1.75
2022-11-18T10:29:29.081Z,1.38
2022-11-18T10:32:20.681Z,3.45
2022-11-18T10:35:02.706Z,3.65
2022-11-18T10:38:06.179Z,2.97
2022-11-18T10:40:30.049Z,1.92
2022-11-18T10:42:58.914Z,1.60
2022-11-18T10:45:33.470Z,1.40
2022-11-18T10:48:15.118Z,1.40
2022-11-18T10:50:45.796Z,1.35
2022-11-18T10:53:34.157Z,1.08
2022-11-18T10:56:08.836Z,1.33
2022-11-18T10:58:42.820Z,1.77
2022-11-18T11:01:24.952Z,1.48
2022-11-18T11:04:23.484Z,1.35
2022-11-18T11:06:52.850Z,0.93
2022-11-18T11:09:29.294Z,1.00
2022-11-18T11:12:17.781Z,0.80
2022-11-18T11:14:54.823Z,1.00
2022-11-18T11:17:39.592Z,0.85
2022-11-18T11:20:17.855Z,1.00
2022-11-18T11:22:46.733Z,0.80
2022-11-18T11:28:29.787Z,0.70
2022-11-18T11:31:06.537Z,0.95
2022-11-18T11:33:58.111Z,1.40
2022-11-18T11:36:34.490Z,0.90
2022-11-18T11:39:26.668Z,0.80
2022-11-18T11:42:11.129Z,0.90
2022-11-18T11:44:58.656Z,0.77
2022-11-18T11:47:50.411Z,0.77
2022-11-18T11:51:05.323Z,1.10
2022-11-18T11:54:16.705Z,0.70
2022-11-18T11:57:16.585Z,0.88
2022-11-18T12:00:04.478Z,1.10
2022-11-18T12:03:37.048Z,0.80
2022-11-18T12:06:04.976Z,0.52
2022-11-18T12:08:34.331Z,0.60
2022-11-18T12:11:43.377Z,0.63
2022-11-18T12:14:37.115Z,0.70
2022-11-18T12:17:27.397Z,0.73
2022-11-18T12:19:55.770Z,0.50
2022-11-18T12:22:23.982Z,0.75
2022-11-18T12:24:52.134Z,0.63
2022-11-18T12:27:27.705Z,0.60
2022-11-18T12:30:04.166Z,0.57
2022-11-18T12:32:46.952Z,0.70
2022-11-18T12:35:36.487Z,1.00
2022-11-18T12:38:05.168Z,1.00
2022-11-18T12:40:47.380Z,0.90
2022-11-18T12:43:49.288Z,0.60
2022-11-18T12:46:35.567Z,0.50
2022-11-18T12:49:23.203Z,0.70
2022-11-18T12:51:56.728Z,0.68
2022-11-18T12:54:58.575Z,0.68
2022-11-18T12:57:34.951Z,0.80
2022-11-18T13:00:20.356Z,0.80
2022-11-18T13:02:57.513Z,0.65
2022-11-18T13:05:29.118Z,0.80
2022-11-18T13:08:17.854Z,0.70
2022-11-18T13:10:55.877Z,0.68
2022-11-18T13:13:33.157Z,0.70
2022-11-18T13:16:38.430Z,0.90
2022-11-18T13:19:06.805Z,0.95
2022-11-18T13:21:53.767Z,0.90
2022-11-18T13:24:23.426Z,0.65
2022-11-18T13:26:59.314Z,0.77
2022-11-18T13:29:53.842Z,0.70
2022-11-18T13:32:29.096Z,0.50
2022-11-18T13:35:16.251Z,0.55
2022-11-18T13:38:28.072Z,0.70
2022-11-18T13:41:08.579Z,0.63
2022-11-18T13:43:38.077Z,0.52
2022-11-18T13:46:22.367Z,0.60
2022-11-18T13:48:58.749Z,0.60
2022-11-18T13:51:27.895Z,0.60
2022-11-18T13:53:56.561Z,0.80
2022-11-18T13:56:34.919Z,0.98
2022-11-18T13:59:21.352Z,0.80
2022-11-18T14:01:59.497Z,0.68
2022-11-18T14:04:33.192Z,0.70
2022-11-18T14:07:31.117Z,0.95
2022-11-18T14:10:09.003Z,0.93
2022-11-18T14:12:37.350Z,0.90
2022-11-18T14:15:39.094Z,0.80
2022-11-18T14:18:35.043Z,0.75
2022-11-18T14:21:06.313Z,0.95
2022-11-18T14:23:39.093Z,1.17
2022-11-18T14:26:08.333Z,0.70
2022-11-18T14:28:39.106Z,0.90
2022-11-18T14:31:30.846Z,1.20
2022-11-18T14:34:18.591Z,0.85
2022-11-18T14:36:49.036Z,0.60
2022-11-18T14:39:27.576Z,0.88
2022-11-18T14:41:57.978Z,1.02
2022-11-18T14:44:29.023Z,1.40
2022-11-18T14:47:02.944Z,0.88
2022-11-18T14:49:34.983Z,0.70
2022-11-18T14:52:05.551Z,0.80
2022-11-18T14:54:34.192Z,0.80
2022-11-18T14:57:05.116Z,0.52
2022-11-18T14:59:33.736Z,0.70
2022-11-18T15:02:02.478Z,0.60
2022-11-18T15:04:40.862Z,0.60
2022-11-18T15:07:23.066Z,0.60
2022-11-18T15:09:52.776Z,0.60
2022-11-18T15:12:21.354Z,0.80
2022-11-18T15:14:51.150Z,0.60
2022-11-18T15:17:21.079Z,0.75
2022-11-18T15:19:49.846Z,0.70
2022-11-18T15:22:18.198Z,0.90
2022-11-18T15:24:47.550Z,0.80
2022-11-18T15:27:18.010Z,0.80
2022-11-18T15:29:47.439Z,1.20
2022-11-18T15:32:17.893Z,1.40
2022-11-18T15:34:46.547Z,1.02
2022-11-18T15:37:15.818Z,1.30
2022-11-18T15:39:44.815Z,1.27
2022-11-18T15:42:13.153Z,1.80
2022-11-18T15:44:42.707Z,2.03
2022-11-18T15:47:13.223Z,1.10
2022-11-18T15:49:43.945Z,1.60
2022-11-18T15:52:17.809Z,1.20
2022-11-18T15:54:53.958Z,0.95
2022-11-18T15:57:22.449Z,0.90
2022-11-18T15:59:51.058Z,0.80
2022-11-18T16:02:20.015Z,0.60
2022-11-18T16:04:48.405Z,0.80
2022-11-18T16:07:17.036Z,0.70
2022-11-18T16:10:04.121Z,0.80
2022-11-18T16:12:49.292Z,1.00
2022-11-18T16:15:37.247Z,1.90
2022-11-18T16:18:06.407Z,2.42
2022-11-18T16:20:34.963Z,2.63
2022-11-18T16:23:03.493Z,2.45
2022-11-18T16:25:31.547Z,2.83
2022-11-18T16:28:06.780Z,3.17
2022-11-18T16:31:16.185Z,7.93
2022-11-18T16:33:44.944Z,7.70
2022-11-18T16:36:13.824Z,8.93
2022-11-18T16:38:43.024Z,8.63
2022-11-18T16:41:30.682Z,7.45
2022-11-18T16:44:06.050Z,7.25
2022-11-18T16:46:37.211Z,6.20
2022-11-18T16:49:07.281Z,4.30
2022-11-18T16:51:35.919Z,2.55
2022-11-18T16:54:07.413Z,2.47
2022-11-18T16:59:11.509Z,1.30
2022-11-18T17:01:42.434Z,1.00
2022-11-18T17:04:13.655Z,1.02
2022-11-18T17:06:44.289Z,1.00
2022-11-18T17:09:19.761Z,0.77
2022-11-18T17:11:50.440Z,0.90
2022-11-18T17:14:20.066Z,1.20
2022-11-18T17:16:49.130Z,0.90
2022-11-18T17:19:21.457Z,1.00
2022-11-18T17:21:51.887Z,1.15
2022-11-18T17:24:24.023Z,1.10
2022-11-18T17:26:53.302Z,0.80
2022-11-18T17:29:21.859Z,0.90
2022-11-18T17:31:51.594Z,1.17
2022-11-18T17:34:20.587Z,1.23
2022-11-18T17:36:49.619Z,1.08
2022-11-18T17:39:18.984Z,1.33
2022-11-18T17:42:06.307Z,1.15
2022-11-18T17:44:34.470Z,1.35
2022-11-18T17:47:02.920Z,1.73
2022-11-18T17:49:33.194Z,1.20
2022-11-18T17:52:01.411Z,0.98
2022-11-18T17:54:30.252Z,1.13
2022-11-18T17:56:58.749Z,1.05
2022-11-18T17:59:28.242Z,1.30
2022-11-18T18:01:59.577Z,1.30
2022-11-18T18:04:29.854Z,0.73
2022-11-18T18:07:00.213Z,0.73
2022-11-18T18:09:31.472Z,1.15
2022-11-18T18:12:21.711Z,1.10
2022-11-18T18:14:50.539Z,1.00
2022-11-18T18:17:19.172Z,1.30
2022-11-18T18:19:48.020Z,1.20
2022-11-18T18:22:16.471Z,1.90
2022-11-18T18:24:45.128Z,1.55
2022-11-18T18:27:14.148Z,1.42
2022-11-18T18:29:42.772Z,2.10
2022-11-18T18:32:11.099Z,1.70
2022-11-18T18:34:41.414Z,1.65
2022-11-18T18:37:11.303Z,1.83
2022-11-18T18:39:39.611Z,1.80
2022-11-18T18:42:07.890Z,2.45
2022-11-18T18:44:55.861Z,3.83
2022-11-18T18:47:24.515Z,3.67
2022-11-18T18:49:56.442Z,3.00
2022-11-18T18:52:25.630Z,2.60
2022-11-18T18:54:55.074Z,2.10
2022-11-18T18:57:27.182Z,2.03
2022-11-18T18:59:56.341Z,1.73
2022-11-18T19:02:25.225Z,2.20
2022-11-18T19:04:54.462Z,2.20
2022-11-18T19:07:23.657Z,1.90
2022-11-18T19:09:53.098Z,1.80
2022-11-18T19:12:41.086Z,1.92
2022-11-18T19:15:14.903Z,2.30
2022-11-18T19:17:46.090Z,1.73
2022-11-18T19:20:34.712Z,2.10
2022-11-18T19:26:04.056Z,2.15
2022-11-18T19:28:32.999Z,2.10
2022-11-18T19:31:02.572Z,2.30
2022-11-18T19:33:31.200Z,2.10
2022-11-18T19:36:09.799Z,2.60
2022-11-18T19:38:38.393Z,2.10
2022-11-18T19:41:10.518Z,2.83
2022-11-18T19:43:41.034Z,2.90
2022-11-18T19:46:09.963Z,2.55
2022-11-18T19:48:39.458Z,2.53
2022-11-18T19:51:15.308Z,3.05
2022-11-18T19:53:44.718Z,2.97
2022-11-18T19:56:21.287Z,3.17
2022-11-18T19:58:51.905Z,3.33
2022-11-18T20:01:29.794Z,2.60
2022-11-18T20:04:03.268Z,2.30
2022-11-18T20:06:34.066Z,3.00
2022-11-18T20:09:06.373Z,2.77
2022-11-18T20:11:36.036Z,3.13
2022-11-18T20:14:05.301Z,2.30
2022-11-18T20:16:36.378Z,1.77
2022-11-18T20:21:45.173Z,1.50
2022-11-18T20:24:20.681Z,1.35
2022-11-18T20:26:49.912Z,1.67
2022-11-18T20:29:18.961Z,1.35
2022-11-18T20:31:48.691Z,1.42
2022-11-18T20:34:17.911Z,1.63
2022-11-18T20:36:48.201Z,1.40
2022-11-18T20:39:18.265Z,1.60
2022-11-18T20:42:06.358Z,1.40
2022-11-18T20:44:35.314Z,1.30
2022-11-18T20:47:09.526Z,1.85
2022-11-18T20:49:39.327Z,1.60
2022-11-18T20:52:08.117Z,2.08
2022-11-18T20:54:38.063Z,1.63
2022-11-18T20:57:07.074Z,1.50
2022-11-18T20:59:36.682Z,1.50
2022-11-18T21:02:06.031Z,1.83
2022-11-18T21:04:37.471Z,1.88
2022-11-18T21:07:06.837Z,1.70
2022-11-18T21:09:41.148Z,1.73
2022-11-18T21:12:10.731Z,1.58
2022-11-18T21:14:39.799Z,1.75
2022-11-18T21:17:09.546Z,1.83
2022-11-18T21:19:38.513Z,2.17
2022-11-18T21:22:07.114Z,1.83
2022-11-18T21:24:35.840Z,2.35
2022-11-18T21:27:05.707Z,1.75
2022-11-18T21:29:35.185Z,2.22
2022-11-18T21:32:03.709Z,2.17
2022-11-18T21:34:32.740Z,1.90
2022-11-18T21:37:01.434Z,2.15
2022-11-18T21:39:30.506Z,2.00
2022-11-18T21:42:00.195Z,1.90
2022-11-18T21:44:29.042Z,1.70
2022-11-18T21:46:57.837Z,1.73
2022-11-18T21:49:26.742Z,2.03
2022-11-18T21:51:55.724Z,1.90
2022-11-18T21:54:24.197Z,1.75
2022-11-18T21:56:54.092Z,2.00
2022-11-18T21:59:24.647Z,1.60
2022-11-18T22:01:53.520Z,2.08
2022-11-18T22:04:43.007Z,2.08
2022-11-18T22:07:15.886Z,1.77
2022-11-18T22:09:45.330Z,3.33
2022-11-18T22:12:13.950Z,4.35
2022-11-18T22:14:42.776Z,3.13
2022-11-18T22:17:11.676Z,2.72
2022-11-18T22:19:40.100Z,2.72
2022-11-18T22:22:09.682Z,2.00
2022-11-18T22:24:38.266Z,3.30
2022-11-18T22:27:11.108Z,2.30
2022-11-18T22:29:40.702Z,2.05
2022-11-18T22:32:09.086Z,1.90
2022-11-18T22:34:38.283Z,2.10
2022-11-18T22:37:07.054Z,2.30
2022-11-18T22:39:36.136Z,2.03
2022-11-18T22:42:23.065Z,2.20
2022-11-18T22:44:51.731Z,2.67
2022-11-18T22:47:21.925Z,2.30
2022-11-18T22:49:55.001Z,2.55
2022-11-18T22:52:25.344Z,3.05
2022-11-18T22:54:56.490Z,2.60
2022-11-18T22:57:25.381Z,2.92
2022-11-18T22:59:53.970Z,2.88
2022-11-18T23:02:23.087Z,3.20
2022-11-18T23:04:53.620Z,3.17
2022-11-18T23:07:22.526Z,3.20
2022-11-18T23:09:50.658Z,2.88
2022-11-18T23:12:37.518Z,2.78
2022-11-18T23:15:06.229Z,2.80
2022-11-18T23:17:34.265Z,2.70
2022-11-18T23:20:02.459Z,2.55
2022-11-18T23:22:30.444Z,2.30
2022-11-18T23:24:58.317Z,2.35
2022-11-18T23:27:27.654Z,2.17
2022-11-18T23:29:55.916Z,1.80
2022-11-18T23:32:24.229Z,1.73
2022-11-18T23:34:52.474Z,1.90
2022-11-18T23:37:20.373Z,1.63
2022-11-18T23:39:48.599Z,1.95
2022-11-18T23:42:16.590Z,1.50
2022-11-18T23:44:50.193Z,1.60
2022-11-18T23:47:19.040Z,2.08
2022-11-18T23:49:46.980Z,1.65
2022-11-18T23:52:15.042Z,1.85
2022-11-18T23:54:43.662Z,2.10
2022-11-18T23:57:11.738Z,1.90
2022-11-18T23:59:39.874Z,1.92
